createdAt,value
2018-09-17T00:00:28.285Z,7.87
2018-09-17T00:02:55.790Z,7.37
2018-09-17T00:05:23.233Z,9.57
2018-09-17T00:07:50.708Z,8.40
2018-09-17T00:10:18.152Z,9.10
2018-09-17T00:12:45.623Z,11.30
2018-09-17T00:15:13.082Z,6.10
2018-09-17T00:17:40.569Z,8.43
2018-09-17T00:20:08.018Z,9.60
2018-09-17T00:22:35.501Z,10.60
2018-09-17T00:25:02.956Z,8.10
2018-09-17T00:27:30.422Z,9.63
2018-09-17T00:29:57.952Z,10.50
2018-09-17T00:32:25.410Z,8.93
2018-09-17T00:34:52.889Z,10.27
2018-09-17T00:37:20.330Z,8.93
2018-09-17T00:39:47.878Z,10.70
2018-09-17T00:42:15.338Z,8.33
2018-09-17T00:44:42.721Z,9.33
2018-09-17T00:47:10.129Z,8.60
2018-09-17T00:49:37.618Z,8.73
2018-09-17T00:52:05.073Z,8.67
2018-09-17T00:54:32.553Z,11.00
2018-09-17T00:56:59.990Z,6.80
2018-09-17T00:59:28.154Z,8.00
2018-09-17T01:01:55.698Z,7.13
2018-09-17T01:04:23.124Z,6.53
2018-09-17T01:06:51.754Z,8.20
2018-09-17T01:09:24.946Z,8.30
2018-09-17T01:11:52.379Z,6.60
2018-09-17T01:14:20.697Z,7.03
2018-09-17T01:16:48.132Z,8.50
2018-09-17T01:19:15.616Z,7.60
2018-09-17T01:21:43.059Z,8.73
2018-09-17T01:24:10.495Z,9.70
2018-09-17T01:26:37.968Z,6.50
2018-09-17T01:29:05.448Z,8.93
2018-09-17T01:31:32.866Z,10.33
2018-09-17T01:34:00.440Z,9.30
2018-09-17T01:36:27.814Z,9.10
2018-09-17T01:38:55.343Z,9.83
2018-09-17T01:41:22.765Z,7.70
2018-09-17T01:43:50.213Z,7.50
2018-09-17T01:46:17.903Z,9.07
2018-09-17T01:48:45.418Z,8.67
2018-09-17T01:51:12.949Z,9.37
2018-09-17T01:53:40.514Z,7.37
2018-09-17T01:56:07.967Z,8.43
2018-09-17T01:58:35.425Z,6.53
2018-09-17T02:01:02.883Z,8.83
2018-09-17T02:03:30.416Z,10.33
2018-09-17T02:05:57.932Z,10.53
2018-09-17T02:08:25.485Z,12.87
2018-09-17T02:10:53.011Z,7.67
2018-09-17T02:13:20.621Z,7.67
2018-09-17T02:15:48.058Z,7.83
2018-09-17T02:18:15.525Z,9.87
2018-09-17T02:20:42.973Z,7.57
2018-09-17T02:23:10.437Z,6.40
2018-09-17T02:25:37.962Z,7.43
2018-09-17T02:28:05.457Z,8.63
2018-09-17T02:30:32.937Z,9.40
2018-09-17T02:33:00.401Z,10.40
2018-09-17T02:35:27.909Z,11.87
2018-09-17T02:37:55.374Z,8.63
2018-09-17T02:40:22.929Z,9.63
2018-09-17T02:42:50.744Z,11.47
2018-09-17T02:45:19.130Z,8.97
2018-09-17T02:47:47.098Z,8.57
2018-09-17T02:50:14.517Z,8.33
2018-09-17T02:52:41.993Z,7.67
2018-09-17T02:55:09.485Z,8.07
2018-09-17T02:57:37.434Z,10.30
2018-09-17T03:00:05.664Z,6.07
2018-09-17T03:02:33.162Z,8.27
2018-09-17T03:05:00.534Z,10.23
2018-09-17T03:07:28.048Z,7.30
2018-09-17T03:09:55.629Z,9.57
2018-09-17T03:12:23.022Z,7.77
2018-09-17T03:14:50.514Z,13.20
2018-09-17T03:17:18.493Z,9.37
2018-09-17T03:19:46.049Z,9.83
2018-09-17T03:22:14.074Z,10.77
2018-09-17T03:24:41.617Z,10.03
2018-09-17T03:27:09.261Z,9.70
2018-09-17T03:29:36.698Z,12.43
2018-09-17T03:32:04.272Z,9.40
2018-09-17T03:34:31.662Z,11.73
2018-09-17T03:36:59.193Z,11.83
2018-09-17T03:39:26.726Z,7.67
2018-09-17T03:41:54.164Z,10.93
2018-09-17T03:44:22.106Z,7.50
2018-09-17T03:46:49.524Z,9.17
2018-09-17T03:49:16.984Z,10.73
2018-09-17T03:51:44.417Z,11.33
2018-09-17T03:54:12.578Z,7.77
2018-09-17T03:56:40.036Z,10.13
2018-09-17T03:59:07.522Z,11.70
2018-09-17T04:01:35.499Z,9.20
2018-09-17T04:04:02.863Z,8.53
2018-09-17T04:06:30.278Z,11.87
2018-09-17T04:08:57.701Z,8.43
2018-09-17T04:11:25.158Z,10.57
2018-09-17T04:13:52.618Z,7.83
2018-09-17T04:16:20.036Z,12.67
2018-09-17T04:18:47.485Z,9.17
2018-09-17T04:21:15.053Z,12.17
2018-09-17T04:23:42.493Z,10.27
2018-09-17T04:26:11.021Z,8.13
2018-09-17T04:28:38.647Z,10.23
2018-09-17T04:31:06.257Z,12.30
2018-09-17T04:33:39.252Z,7.57
2018-09-17T04:36:07.025Z,14.73
2018-09-17T04:38:34.513Z,8.97
2018-09-17T04:41:02.283Z,9.23
2018-09-17T04:43:29.812Z,10.63
2018-09-17T04:45:58.035Z,10.63
2018-09-17T04:48:25.483Z,8.33
2018-09-17T04:50:53.018Z,14.63
2018-09-17T04:53:20.596Z,9.30
2018-09-17T04:55:48.803Z,9.07
2018-09-17T04:58:16.296Z,10.93
2018-09-17T05:00:43.741Z,11.87
2018-09-17T05:03:11.185Z,10.77
2018-09-17T05:05:38.587Z,8.70
2018-09-17T05:08:06.162Z,11.90
2018-09-17T05:10:34.063Z,8.30
2018-09-17T05:13:01.548Z,11.87
2018-09-17T05:15:28.908Z,10.17
2018-09-17T05:17:56.359Z,13.67
2018-09-17T05:20:23.825Z,8.17
2018-09-17T05:22:51.299Z,10.23
2018-09-17T05:25:18.688Z,13.27
2018-09-17T05:27:46.177Z,11.47
2018-09-17T05:30:13.689Z,12.03
2018-09-17T05:32:41.121Z,13.57
2018-09-17T05:35:08.694Z,13.20
2018-09-17T05:37:36.118Z,9.67
2018-09-17T05:40:03.585Z,13.50
2018-09-17T05:42:31.536Z,11.80
2018-09-17T05:44:59.025Z,13.37
2018-09-17T05:47:27.114Z,13.47
2018-09-17T05:49:54.628Z,9.70
2018-09-17T05:52:22.077Z,15.80
2018-09-17T05:54:49.536Z,12.07
2018-09-17T05:57:17.005Z,15.27
2018-09-17T05:59:44.682Z,14.70
2018-09-17T06:02:12.089Z,17.73
2018-09-17T06:04:39.534Z,16.90
2018-09-17T06:07:07.116Z,15.60
2018-09-17T06:09:34.544Z,14.70
2018-09-17T06:12:02.030Z,16.47
2018-09-17T06:14:29.552Z,13.30
2018-09-17T06:16:57.131Z,13.43
2018-09-17T06:19:24.880Z,14.17
2018-09-17T06:21:52.309Z,13.63
2018-09-17T06:24:20.697Z,17.33
2018-09-17T06:26:48.968Z,14.70
2018-09-17T06:29:16.671Z,13.67
2018-09-17T06:31:44.204Z,20.83
2018-09-17T06:34:11.627Z,17.73
2018-09-17T06:36:39.121Z,15.00
2018-09-17T06:39:07.908Z,17.43
2018-09-17T06:41:35.387Z,18.87
2018-09-17T06:44:03.041Z,12.53
2018-09-17T06:46:30.529Z,17.97
2018-09-17T06:48:58.749Z,17.73
2018-09-17T06:51:26.259Z,12.23
2018-09-17T06:53:53.842Z,22.53
2018-09-17T06:56:21.447Z,17.17
2018-09-17T06:58:49.188Z,21.87
2018-09-17T07:01:16.894Z,22.73
2018-09-17T07:03:44.430Z,22.00
2018-09-17T07:06:11.909Z,21.47
2018-09-17T07:08:39.355Z,20.33
2018-09-17T07:11:08.245Z,21.13
2018-09-17T07:13:35.783Z,16.17
2018-09-17T07:16:03.313Z,15.13
2018-09-17T07:18:30.783Z,17.27
2018-09-17T07:20:58.282Z,16.00
2018-09-17T07:23:25.807Z,13.27
2018-09-17T07:25:53.449Z,17.63
2018-09-17T07:28:20.928Z,12.83
2018-09-17T07:30:48.684Z,12.43
2018-09-17T07:33:16.178Z,11.57
2018-09-17T07:35:43.750Z,12.77
2018-09-17T07:38:11.266Z,14.53
2018-09-17T07:40:39.143Z,12.60
2018-09-17T07:43:06.595Z,11.73
2018-09-17T07:45:34.167Z,10.37
2018-09-17T07:48:01.586Z,12.30
2018-09-17T07:50:28.999Z,11.97
2018-09-17T07:52:56.558Z,13.20
2018-09-17T07:55:24.131Z,9.33
2018-09-17T07:57:52.190Z,11.10
2018-09-17T08:00:19.802Z,9.90
2018-09-17T08:02:49.084Z,11.57
2018-09-17T08:05:16.606Z,11.57
2018-09-17T08:07:44.189Z,10.63
2018-09-17T08:10:16.333Z,10.43
2018-09-17T08:12:43.752Z,9.90
2018-09-17T08:15:11.234Z,11.20
2018-09-17T08:17:38.789Z,8.87
2018-09-17T08:20:06.433Z,10.03
2018-09-17T08:22:33.959Z,9.07
2018-09-17T08:25:01.384Z,10.60
2018-09-17T08:27:28.858Z,9.53
2018-09-17T08:29:56.482Z,9.47
2018-09-17T08:32:23.926Z,11.33
2018-09-17T08:34:51.456Z,12.20
2018-09-17T08:37:18.972Z,10.30
2018-09-17T08:39:46.567Z,10.47
2018-09-17T08:42:15.371Z,10.30
2018-09-17T08:44:43.001Z,9.30
2018-09-17T08:47:10.515Z,12.27
2018-09-17T08:49:38.858Z,10.20
2018-09-17T08:52:06.340Z,10.53
2018-09-17T08:54:38.478Z,10.67
2018-09-17T08:57:11.720Z,11.83
2018-09-17T08:59:44.853Z,10.40
2018-09-17T09:02:15.568Z,9.93
2018-09-17T09:04:48.603Z,11.50
2018-09-17T09:07:21.580Z,11.40
2018-09-17T09:09:51.225Z,10.73
2018-09-17T09:12:24.841Z,9.83
2018-09-17T09:14:55.136Z,11.47
2018-09-17T09:17:22.709Z,12.53
2018-09-17T09:19:50.141Z,13.07
2018-09-17T09:22:17.631Z,14.17
2018-09-17T09:24:45.168Z,14.87
2018-09-17T09:27:12.638Z,10.87
2018-09-17T09:29:40.567Z,12.17
2018-09-17T09:32:08.006Z,11.90
2018-09-17T09:34:35.498Z,12.53
2018-09-17T09:37:03.041Z,12.37
2018-09-17T09:39:30.541Z,13.80
2018-09-17T09:41:57.984Z,13.67
2018-09-17T09:44:25.466Z,10.80
2018-09-17T09:46:53.491Z,14.63
2018-09-17T09:49:21.060Z,10.47
2018-09-17T09:51:48.521Z,10.27
2018-09-17T09:54:15.936Z,11.23
2018-09-17T09:56:43.419Z,12.13
2018-09-17T09:59:11.164Z,14.43
2018-09-17T10:01:44.264Z,10.70
2018-09-17T10:04:17.193Z,10.97
2018-09-17T10:06:44.677Z,12.17
2018-09-17T10:09:17.661Z,10.07
2018-09-17T10:11:51.264Z,14.17
2018-09-17T10:14:24.113Z,9.90
2018-09-17T10:16:57.063Z,13.30
2018-09-17T10:19:25.248Z,14.23
2018-09-17T10:21:52.688Z,12.17
2018-09-17T10:24:20.157Z,10.07
2018-09-17T10:26:47.838Z,9.93
2018-09-17T10:29:16.086Z,15.00
2018-09-17T10:31:43.873Z,12.77
2018-09-17T10:34:11.420Z,12.03
2018-09-17T10:36:38.855Z,11.23
2018-09-17T10:39:08.763Z,11.43
2018-09-17T10:41:36.366Z,10.20
2018-09-17T10:44:04.030Z,6.20
2018-09-17T10:46:31.618Z,9.23
2018-09-17T10:48:59.027Z,7.57
2018-09-17T10:51:27.248Z,7.00
2018-09-17T10:53:55.012Z,6.07
2018-09-17T10:56:22.569Z,6.87
2018-09-17T10:58:49.959Z,5.20
2018-09-17T11:01:17.484Z,6.67
2018-09-17T11:03:44.978Z,5.27
2018-09-17T11:06:12.762Z,5.37
2018-09-17T11:08:40.253Z,6.40
2018-09-17T11:11:08.490Z,5.23
2018-09-17T11:13:35.954Z,7.07
2018-09-17T11:16:03.970Z,6.13
2018-09-17T11:18:31.784Z,5.37
2018-09-17T11:20:59.211Z,7.93
2018-09-17T11:23:26.673Z,4.67
2018-09-17T11:25:54.109Z,5.83
2018-09-17T11:28:21.590Z,5.27
2018-09-17T11:30:49.066Z,8.60
2018-09-17T11:33:16.497Z,7.87
2018-09-17T11:35:44.091Z,4.97
2018-09-17T11:38:11.815Z,5.13
2018-09-17T11:40:39.239Z,4.63
2018-09-17T11:43:06.793Z,5.57
2018-09-17T11:45:34.247Z,5.17
2018-09-17T11:48:01.714Z,6.10
2018-09-17T11:50:29.645Z,5.47
2018-09-17T11:52:58.006Z,4.40
2018-09-17T11:55:25.426Z,5.07
2018-09-17T11:57:53.105Z,5.60
2018-09-17T12:00:25.962Z,5.20
2018-09-17T12:02:59.026Z,4.13
2018-09-17T12:05:32.113Z,4.73
2018-09-17T12:07:59.679Z,6.37
2018-09-17T12:10:27.815Z,5.40
2018-09-17T12:12:55.244Z,5.00
2018-09-17T12:15:22.767Z,4.63
2018-09-17T12:17:50.226Z,4.20
2018-09-17T12:20:17.731Z,5.93
2018-09-17T12:22:45.298Z,5.07
2018-09-17T12:25:13.474Z,6.23
2018-09-17T12:27:41.873Z,3.37
2018-09-17T12:30:09.335Z,3.17
2018-09-17T12:32:36.802Z,5.03
2018-09-17T12:35:04.323Z,3.93
2018-09-17T12:37:31.856Z,7.23
2018-09-17T12:39:59.397Z,4.30
2018-09-17T12:42:26.916Z,3.80
2018-09-17T12:44:54.354Z,6.10
2018-09-17T12:47:21.769Z,2.93
2018-09-17T12:49:49.187Z,3.77
